Time;durP1;ratioP1;P1;durP2;ratioP2;P2;SDS_P1;SDS_P2;PMS_P1;PMS_P2;Temp;Humidity;BMP_temperature;BMP_pressure;BME280_temperature;BME280_humidity;BME280_pressure;Samples;Min_cycle;Max_cycle;Signal;HPM_P1;HPM_P2
2022/04/24 00:01:18;;;;;;;5.23;4.73;;;;;;;10.41;80.97;99382.87;1636186;85;21629;-71
2022/04/24 00:03:46;;;;;;;6.73;4.87;;;;;;;10.43;81.20;99375.48;1636625;86;21111;-72
2022/04/24 00:06:12;;;;;;;4.20;3.80;;;;;;;10.45;81.40;99382.74;1635673;86;21110;-71
2022/04/24 00:08:39;;;;;;;8.57;4.50;;;;;;;10.46;81.51;99384.39;1613181;87;21067;-72
2022/04/24 00:11:06;;;;;;;5.90;5.13;;;;;;;10.49;81.57;99388.79;1637010;86;21115;-72
2022/04/24 00:13:38;;;;;;;5.23;4.27;;;;;;;10.55;81.47;99393.79;1637150;86;21211;-71
2022/04/24 00:16:04;;;;;;;5.07;4.63;;;;;;;10.62;81.53;99400.41;1618397;86;21125;-71
2022/04/24 00:18:30;;;;;;;4.40;4.00;;;;;;;10.66;81.69;99401.61;1635747;86;21096;-71
2022/04/24 00:20:57;;;;;;;6.45;4.87;;;;;;;10.70;81.92;99397.52;1656122;86;21052;-72
2022/04/24 00:23:23;;;;;;;;;;;;;;;10.70;82.31;99395.66;1638082;86;21167;-72
2022/04/24 00:25:50;;;;;;;8.30;5.62;;;;;;;10.67;83.40;99397.41;1637084;86;20144;-73
2022/04/24 00:28:18;;;;;;;5.90;5.33;;;;;;;10.58;83.88;99394.68;1638332;86;21182;-71
2022/04/24 00:30:44;;;;;;;8.75;5.62;;;;;;;10.54;84.38;99392.14;1636705;86;21729;-72
2022/04/24 00:33:11;;;;;;;8.30;5.22;;;;;;;10.56;84.69;99386.61;1636516;86;21037;-71
2022/04/24 00:35:38;;;;;;;6.37;5.73;;;;;;;10.59;85.03;99389.67;1636919;86;21095;-71
2022/04/24 00:38:07;;;;;;;9.70;6.10;;;;;;;10.59;85.39;99386.20;1636783;86;21084;-72
2022/04/24 00:40:33;;;;;;;6.83;5.37;;;;;;;10.57;85.72;99389.06;1636812;86;21080;-72
2022/04/24 00:42:59;;;;;;;11.50;6.12;;;;;;;10.59;86.02;99387.00;1636036;86;21123;-71
2022/04/24 00:45:28;;;;;;;7.03;6.17;;;;;;;10.64;86.21;99378.36;1644086;85;21131;-70
2022/04/24 00:47:58;;;;;;;9.13;5.93;;;;;;;10.67;86.29;99374.76;1636717;86;21551;-72
2022/04/24 00:50:26;;;;;;;6.67;6.03;;;;;;;10.69;86.39;99372.70;1639176;86;21048;-72
2022/04/24 00:52:53;;;;;;;6.40;5.70;;;;;;;10.72;86.59;99368.80;1636141;86;21105;-71
2022/04/24 00:55:23;;;;;;;7.40;6.60;;;;;;;10.75;86.64;99369.69;1655631;83;21100;-71
2022/04/24 00:57:50;;;;;;;6.90;6.23;;;;;;;10.77;86.69;99368.16;1636465;86;21321;-71
2022/04/24 01:00:18;;;;;;;6.97;5.80;;;;;;;10.77;86.69;99366.82;1636155;86;21088;-71
2022/04/24 01:02:46;;;;;;;8.43;6.47;;;;;;;10.79;86.77;99374.09;1635837;86;21052;-71
2022/04/24 01:05:16;;;;;;;6.65;6.05;;;;;;;10.81;86.83;99372.86;1637316;87;21124;-71
2022/04/24 01:07:43;;;;;;;7.07;6.07;;;;;;;10.83;86.74;99373.46;1636991;86;21083;-71
2022/04/24 01:10:10;;;;;;;8.43;6.53;;;;;;;10.84;86.73;99376.41;1636654;86;21044;-71
2022/04/24 01:12:38;;;;;;;6.93;6.40;;;;;;;10.86;87.00;99386.34;1636996;86;21599;-73
2022/04/24 01:15:07;;;;;;;7.03;6.37;;;;;;;10.89;87.15;99384.59;1636797;86;21619;-71
2022/04/24 01:17:34;;;;;;;8.13;6.57;;;;;;;10.93;87.14;99382.33;1644743;86;21076;-72
2022/04/24 01:20:03;;;;;;;6.77;6.17;;;;;;;10.93;87.13;99383.66;1636652;86;21099;-71
2022/04/24 01:22:31;;;;;;;6.40;5.27;;;;;;;10.91;87.24;99385.72;1638008;85;21096;-68
2022/04/24 01:24:57;;;;;;;6.40;5.92;;;;;;;10.89;87.42;99378.45;1636934;86;21584;-72
2022/04/24 01:27:23;;;;;;;5.28;4.78;;;;;;;10.91;87.57;99379.87;1636535;86;21203;-72
2022/04/24 01:29:51;;;;;;;5.47;4.93;;;;;;;10.92;87.61;99376.67;1635652;86;21331;-72
2022/04/24 01:32:18;;;;;;;5.47;4.97;;;;;;;10.93;87.58;99383.66;1648895;86;21076;-70
2022/04/24 01:34:44;;;;;;;5.87;5.45;;;;;;;10.90;87.62;99376.88;1643128;86;21203;-71
2022/04/24 01:37:11;;;;;;;5.90;5.50;;;;;;;10.55;87.73;99323.67;1636707;86;21333;-72
2022/04/24 01:39:39;;;;;;;5.72;5.30;;;;;;;10.92;87.86;99379.34;1636891;86;21464;-72
2022/04/24 01:42:06;;;;;;;4.67;4.28;;;;;;;10.92;87.97;99383.34;1635976;86;21652;-71
2022/04/24 01:44:32;;;;;;;6.30;5.10;;;;;;;10.94;87.89;99381.80;1635844;86;21087;-71
2022/04/24 01:46:58;;;;;;;5.45;5.05;;;;;;;10.93;87.91;99374.33;1637032;86;21060;-71
2022/04/24 01:49:24;;;;;;;6.03;5.47;;;;;;;10.96;88.01;99379.73;1636035;86;21107;-72
2022/04/24 01:51:51;;;;;;;5.00;4.58;;;;;;;10.98;87.96;99378.51;1639675;86;21077;-71
2022/04/24 01:54:18;;;;;;;6.17;5.67;;;;;;;10.98;87.87;99377.17;1651375;86;21733;-70
2022/04/24 01:56:44;;;;;;;5.08;4.67;;;;;;;10.97;87.90;99379.53;1637347;85;21189;-72
2022/04/24 01:59:12;;;;;;;5.37;4.97;;;;;;;10.95;88.04;99381.59;1648194;86;21671;-70
2022/04/24 02:01:39;;;;;;;5.60;5.20;;;;;;;10.92;88.05;99388.67;1635899;86;21068;-71
2022/04/24 02:04:06;;;;;;;6.35;5.67;;;;;;;10.89;88.21;99385.13;1636131;86;21075;-73
2022/04/24 02:06:32;;;;;;;6.17;5.50;;;;;;;10.88;88.28;99385.61;1636815;86;21107;-71
2022/04/24 02:09:00;;;;;;;5.00;4.60;;;;;;;10.89;88.29;99384.59;1635505;86;21156;-71
2022/04/24 02:11:28;;;;;;;5.60;5.00;;;;;;;10.89;88.22;99388.59;1635852;86;21156;-72
2022/04/24 02:13:54;;;;;;;6.93;5.87;;;;;;;10.91;88.33;99385.72;1636496;86;21084;-72
2022/04/24 02:16:21;;;;;;;4.97;4.67;;;;;;;10.94;88.16;99390.61;1638076;86;21083;-71
2022/04/24 02:18:48;;;;;;;6.08;5.60;;;;;;;10.93;87.91;99396.98;1639421;86;21154;-71
2022/04/24 02:21:14;;;;;;;6.10;5.47;;;;;;;10.91;87.97;99400.39;1653137;85;21072;-72
2022/04/24 02:23:40;;;;;;;5.17;4.78;;;;;;;10.91;87.92;99393.72;1635657;86;21686;-69
2022/04/24 02:26:07;;;;;;;5.03;4.63;;;;;;;10.89;87.94;99403.78;1618217;86;21741;-72
2022/04/24 02:28:35;;;;;;;5.97;5.57;;;;;;;10.87;87.97;99407.19;1635685;86;21658;-70
2022/04/24 02:31:01;;;;;;;5.53;5.12;;;;;;;10.85;87.91;99406.55;1655791;86;21139;-73
2022/04/24 02:33:28;;;;;;;5.60;5.20;;;;;;;10.86;88.02;99406.86;1635740;86;21191;-71
2022/04/24 02:35:54;;;;;;;5.22;4.83;;;;;;;10.85;88.04;99404.72;1636048;86;21155;-71
2022/04/24 02:38:22;;;;;;;5.10;4.80;;;;;;;10.87;87.99;99408.52;1636554;86;21099;-72
2022/04/24 02:40:48;;;;;;;5.80;5.35;;;;;;;10.84;87.92;99403.08;1636846;86;21088;-72
2022/04/24 02:43:16;;;;;;;6.80;6.17;;;;;;;10.85;87.97;99408.72;1661202;86;21616;-71
2022/04/24 02:45:44;;;;;;;6.20;5.60;;;;;;;10.88;88.00;99412.80;1649513;85;21311;-72
2022/04/24 02:48:11;;;;;;;5.80;5.30;;;;;;;10.54;87.85;99360.69;1637755;86;21161;-71
2022/04/24 02:50:39;;;;;;;6.95;6.33;;;;;;;10.89;87.69;99419.26;1654616;85;21159;-71
2022/04/24 02:53:07;;;;;;;5.97;5.57;;;;;;;10.93;87.59;99420.98;1635527;86;21571;-72
2022/04/24 02:55:35;;;;;;;6.03;5.53;;;;;;;10.95;87.43;99422.92;1635752;86;21063;-69
2022/04/24 02:58:01;;;;;;;6.00;5.60;;;;;;;10.97;87.16;99430.19;1636557;86;21111;-72
2022/04/24 03:00:39;;;;;;;6.57;6.07;;;;;;;11.00;86.99;99431.11;1638834;86;21654;-72
2022/04/24 03:02:57;;;;;;;6.27;5.87;;;;;;;11.01;86.78;99437.25;1662761;86;21085;-74
2022/04/24 03:05:24;;;;;;;6.15;5.65;;;;;;;11.03;86.59;99447.99;1643377;86;21182;-72
2022/04/24 03:07:52;;;;;;;5.77;5.20;;;;;;;11.04;86.48;99446.17;1645556;86;21185;-71
2022/04/24 03:10:19;;;;;;;5.97;5.37;;;;;;;11.03;86.25;99448.52;1664154;85;21506;-72
2022/04/24 03:12:47;;;;;;;6.17;5.47;;;;;;;10.97;86.22;99455.52;1638502;86;21084;-72
2022/04/24 03:15:15;;;;;;;6.33;5.93;;;;;;;10.93;86.42;99462.83;1635641;86;21107;-71
2022/04/24 03:17:44;;;;;;;6.80;6.20;;;;;;;10.86;86.56;99462.33;1647435;86;21615;-71
2022/04/24 03:20:13;;;;;;;6.50;6.00;;;;;;;10.85;86.67;99466.04;1636992;86;21082;-72
2022/04/24 03:22:42;;;;;;;6.87;6.27;;;;;;;10.87;86.78;99473.83;1635797;86;21088;-70
2022/04/24 03:25:10;;;;;;;7.27;6.67;;;;;;;10.88;86.69;99471.45;1650294;86;21057;-70
2022/04/24 03:27:39;;;;;;;6.83;6.20;;;;;;;10.88;86.43;99472.78;1639893;86;21639;-72
2022/04/24 03:30:09;;;;;;;8.13;7.17;;;;;;;10.86;86.50;99477.52;1635585;86;22150;-72
2022/04/24 03:32:36;;;;;;;6.97;6.37;;;;;;;10.89;86.58;99477.10;1636689;86;21123;-71
2022/04/24 03:35:06;;;;;;;7.33;6.73;;;;;;;10.92;86.42;99480.66;1635774;85;21079;-72
2022/04/24 03:37:33;;;;;;;7.83;6.97;;;;;;;10.96;86.33;99491.72;1636866;86;21052;-73
2022/04/24 03:39:59;;;;;;;7.47;6.87;;;;;;;11.00;85.94;99495.59;1637131;86;21104;-72
2022/04/24 03:42:27;;;;;;;7.67;7.08;;;;;;;11.00;85.94;99495.59;1636214;86;21106;-72
2022/04/24 03:44:55;;;;;;;7.60;6.90;;;;;;;11.00;85.75;99499.10;1635716;86;21099;-72
2022/04/24 03:47:22;;;;;;;7.43;6.83;;;;;;;11.03;85.58;99499.19;1635953;86;21607;-72
2022/04/24 03:49:51;;;;;;;8.07;7.27;;;;;;;11.03;85.45;99497.33;1635853;86;21108;-70
2022/04/24 03:52:18;;;;;;;7.43;6.80;;;;;;;11.05;85.40;99507.27;1635500;86;21099;-71
2022/04/24 03:54:44;;;;;;;8.15;7.45;;;;;;;11.06;85.40;99503.58;1635914;86;21215;-72
2022/04/24 03:57:13;;;;;;;8.23;7.47;;;;;;;11.05;85.23;99503.27;1636522;86;21613;-72
2022/04/24 03:59:40;;;;;;;8.77;7.13;;;;;;;11.05;85.30;99507.79;1636911;86;21619;-73
2022/04/24 04:02:06;;;;;;;7.00;6.47;;;;;;;11.05;85.15;99508.59;1638494;85;21598;-72
2022/04/24 04:04:33;;;;;;;7.43;6.73;;;;;;;11.01;84.97;99507.91;1636279;86;21576;-72
2022/04/24 04:07:01;;;;;;;6.93;6.37;;;;;;;10.96;85.15;99511.72;1635452;86;21247;-72
2022/04/24 04:09:28;;;;;;;8.07;7.47;;;;;;;10.96;85.42;99516.53;1635879;86;21107;-72
2022/04/24 04:11:57;;;;;;;8.40;7.30;;;;;;;10.98;85.28;99522.50;1635451;86;21049;-73
2022/04/24 04:14:25;;;;;;;7.17;6.57;;;;;;;10.95;85.31;99512.24;1635975;86;21095;-72
2022/04/24 04:16:52;;;;;;;7.60;6.87;;;;;;;10.93;85.46;99516.97;1640474;86;21086;-72
2022/04/24 04:19:19;;;;;;;8.48;7.30;;;;;;;10.93;85.55;99520.16;1622065;86;21601;-71
2022/04/24 04:21:45;;;;;;;7.87;6.20;;;;;;;10.94;85.64;99533.78;1636858;86;21578;-72
2022/04/24 04:24:12;;;;;;;7.45;6.75;;;;;;;10.92;85.78;99528.65;1635693;86;21091;-72
2022/04/24 04:26:39;;;;;;;8.47;7.60;;;;;;;10.92;85.86;99536.65;1635666;86;21095;-71
2022/04/24 04:29:05;;;;;;;;;;;;;;;10.94;86.00;99537.25;1638119;86;21127;-72
2022/04/24 04:31:33;;;;;;;;;;;;;;;10.95;86.02;99540.23;1638919;86;20120;-70
2022/04/24 04:34:00;;;;;;;7.85;7.17;;;;;;;10.90;85.99;99540.85;1636551;86;20143;-70
2022/04/24 04:36:26;;;;;;;8.10;7.30;;;;;;;10.86;86.21;99546.30;1636791;86;21079;-73
2022/04/24 04:38:52;;;;;;;8.80;7.95;;;;;;;10.85;86.16;99543.34;1636669;86;21143;-71
2022/04/24 04:41:20;;;;;;;9.40;7.87;;;;;;;10.85;86.19;99542.51;1635864;86;21199;-71
2022/04/24 04:43:48;;;;;;;9.27;7.77;;;;;;;10.84;85.94;99545.70;1636046;86;21093;-72
2022/04/24 04:46:14;;;;;;;8.25;7.25;;;;;;;10.86;85.78;99549.49;1636341;86;21159;-72
2022/04/24 04:48:40;;;;;;;7.80;7.10;;;;;;;10.69;85.32;99524.61;1662544;86;21068;-69
2022/04/24 04:51:11;;;;;;;8.00;7.30;;;;;;;10.78;84.76;99555.06;1661937;85;21131;-72
2022/04/24 04:53:35;;;;;;;8.50;7.37;;;;;;;10.74;84.99;99555.15;1639069;85;21036;-73
2022/04/24 04:56:01;;;;;;;;;;;;;;;10.76;85.20;99561.92;1638855;86;21087;-70
2022/04/24 04:58:29;;;;;;;6.33;5.80;;;;;;;10.80;84.53;99558.33;1656358;85;20134;-72
2022/04/24 05:00:55;;;;;;;;;;;;;;;10.78;83.66;99566.53;1639573;85;21150;-72
2022/04/24 05:03:23;;;;;;;6.60;5.90;;;;;;;10.81;82.71;99565.29;1635715;86;20499;-72
2022/04/24 05:05:49;;;;;;;4.45;4.10;;;;;;;10.79;81.13;99573.48;1639121;86;21154;-73
2022/04/24 05:08:16;;;;;;;4.90;4.40;;;;;;;10.80;80.39;99575.14;1636051;86;21124;-73
2022/04/24 05:10:44;;;;;;;4.30;3.90;;;;;;;10.79;78.36;99574.01;1636463;86;21043;-72
2022/04/24 05:13:10;;;;;;;3.70;3.50;;;;;;;10.77;77.91;99580.06;1656049;86;21158;-72
2022/04/24 05:15:37;;;;;;;4.40;4.10;;;;;;;10.78;77.95;99577.20;1647730;86;21014;-72
2022/04/24 05:18:03;;;;;;;3.37;3.27;;;;;;;10.80;77.48;99583.66;1644987;85;21209;-72
2022/04/24 05:20:30;;;;;;;3.25;3.10;;;;;;;10.81;76.94;99583.45;1636170;86;21592;-73
2022/04/24 05:23:07;;;;;;;3.70;3.40;;;;;;;10.83;76.23;99593.89;1635920;85;21076;-73
2022/04/24 05:25:35;;;;;;;3.00;2.80;;;;;;;10.83;75.98;99592.55;1635851;86;21579;-72
2022/04/24 05:28:04;;;;;;;3.33;3.13;;;;;;;10.96;75.80;99593.05;1636065;86;21111;-73
2022/04/24 05:30:33;;;;;;;2.97;2.70;;;;;;;11.23;73.72;99599.14;1636110;86;22359;-72
2022/04/24 05:32:59;;;;;;;3.27;3.17;;;;;;;11.62;71.91;99600.81;1655092;86;21158;-73
2022/04/24 05:35:25;;;;;;;3.83;3.58;;;;;;;12.25;71.84;99589.34;1635838;86;21103;-73
2022/04/24 05:37:52;;;;;;;2.80;2.70;;;;;;;12.95;67.18;99592.30;1636739;86;21564;-73
2022/04/24 05:40:20;;;;;;;2.87;2.77;;;;;;;13.50;66.60;99587.47;1636569;86;21072;-73
2022/04/24 05:42:55;;;;;;;2.50;2.40;;;;;;;13.99;62.14;99585.58;1635930;86;21068;-73
2022/04/24 05:45:27;;;;;;;2.62;2.52;;;;;;;14.03;61.54;99584.56;1634925;85;21703;-72
2022/04/24 05:47:55;;;;;;;2.10;2.00;;;;;;;14.05;60.38;99590.51;1663733;85;21202;-72
2022/04/24 05:50:23;;;;;;;1.57;1.55;;;;;;;14.07;59.78;99592.47;1683374;85;21824;-72
2022/04/24 05:52:55;;;;;;;2.90;2.70;;;;;;;14.13;59.26;99595.56;1663506;85;21064;-72
2022/04/24 05:55:25;;;;;;;2.35;2.22;;;;;;;14.27;58.41;99598.03;1682736;85;21899;-73
2022/04/24 05:57:54;;;;;;;2.95;2.77;;;;;;;14.31;58.38;99597.33;1663704;85;22028;-71
2022/04/24 06:00:21;;;;;;;2.37;2.27;;;;;;;14.44;58.10;99594.95;1657366;86;22352;-72
2022/04/24 06:02:51;;;;;;;1.77;1.70;;;;;;;14.48;57.57;99597.46;1664164;85;21042;-73
2022/04/24 06:05:17;;;;;;;3.37;3.08;;;;;;;14.60;58.04;99596.98;1664338;86;21163;-74
2022/04/24 06:07:44;;;;;;;2.52;2.42;;;;;;;14.91;56.38;99607.06;1641631;86;21091;-71
2022/04/24 06:10:12;;;;;;;2.05;1.95;;;;;;;15.24;55.97;99601.60;1647091;86;21078;-73
2022/04/24 06:12:54;;;;;;;2.12;2.02;;;;;;;15.63;53.00;99602.35;1644879;86;21583;-73
2022/04/24 06:15:24;;;;;;;2.37;2.17;;;;;;;15.95;53.61;99604.05;1631363;86;21156;-73
2022/04/24 06:17:55;;;;;;;1.70;1.60;;;;;;;16.23;51.16;99591.63;1644385;86;21159;-73
2022/04/24 06:20:24;;;;;;;1.60;1.52;;;;;;;16.08;51.90;99590.83;1656236;86;21129;-72
2022/04/24 06:22:57;;;;;;;2.05;1.95;;;;;;;16.07;51.77;99599.44;1636049;86;21091;-73
2022/04/24 06:25:27;;;;;;;1.57;1.47;;;;;;;16.17;50.34;99592.61;1636008;86;21757;-74
2022/04/24 06:27:54;;;;;;;1.57;1.47;;;;;;;16.20;49.94;99598.31;1636297;86;21616;-74
2022/04/24 06:30:23;;;;;;;;;;;;;;;16.38;50.02;99595.09;1654717;86;22413;-74
2022/04/24 06:32:50;;;;;;;2.27;2.17;;;;;;;16.71;49.63;99598.30;1644138;85;20182;-74
2022/04/24 06:35:18;;;;;;;2.15;2.05;;;;;;;16.72;47.83;99599.91;1662675;85;21061;-74
2022/04/24 06:37:48;;;;;;;3.67;2.20;;;;;;;16.61;47.36;99601.62;1637098;86;21185;-73
2022/04/24 06:40:19;;;;;;;2.08;1.98;;;;;;;16.34;47.25;99606.33;1636875;86;21452;-72
2022/04/24 06:43:00;;;;;;;2.30;2.20;;;;;;;16.00;48.25;99604.14;1663678;86;21156;-73
2022/04/24 06:45:38;;;;;;;2.50;2.40;;;;;;;16.01;49.96;99609.82;1664328;85;21567;-73
2022/04/24 06:48:11;;;;;;;2.50;2.40;;;;;;;16.14;48.67;99616.23;1664183;86;21039;-73
2022/04/24 06:50:45;;;;;;;2.47;2.37;;;;;;;16.24;48.01;99618.81;1649455;86;21047;-72
2022/04/24 06:53:20;;;;;;;2.10;2.10;;;;;;;16.31;47.71;99616.25;1656066;86;21087;-73
2022/04/24 06:55:50;;;;;;;2.70;2.50;;;;;;;16.45;47.76;99616.73;1636377;86;21115;-74
2022/04/24 06:58:19;;;;;;;3.22;3.02;;;;;;;16.64;45.26;99615.14;1635579;86;21567;-72
2022/04/24 07:00:48;;;;;;;2.55;2.45;;;;;;;16.48;45.81;99620.28;1638645;86;21210;-73
2022/04/24 07:03:20;;;;;;;3.15;2.87;;;;;;;16.42;46.14;99617.20;1635927;86;22213;-74
2022/04/24 07:05:53;;;;;;;2.80;2.70;;;;;;;16.45;45.75;99618.08;1635782;86;21940;-72
2022/04/24 07:08:24;;;;;;;2.52;2.42;;;;;;;16.44;46.24;99616.43;1635855;86;21068;-74
2022/04/24 07:10:53;;;;;;;3.05;2.80;;;;;;;16.39;46.78;99621.75;1636269;86;21116;-73
2022/04/24 07:13:22;;;;;;;3.58;3.27;;;;;;;16.31;46.70;99624.31;1636208;86;21060;-73
2022/04/24 07:15:51;;;;;;;2.70;2.60;;;;;;;16.21;46.04;99620.63;1655804;86;21120;-72
2022/04/24 07:18:18;;;;;;;2.55;2.45;;;;;;;16.09;44.91;99621.52;1636704;86;21106;-69
2022/04/24 07:20:47;;;;;;;3.00;2.80;;;;;;;16.00;45.50;99615.44;1640281;86;21051;-73
2022/04/24 07:23:13;;;;;;;3.47;3.27;;;;;;;15.88;45.75;99623.53;1650953;85;21607;-73
2022/04/24 07:25:43;;;;;;;3.12;3.02;;;;;;;15.80;45.86;99625.27;1635840;86;21065;-73
2022/04/24 07:28:14;;;;;;;3.62;3.45;;;;;;;15.63;46.05;99628.67;1636007;86;21144;-72
2022/04/24 07:30:42;;;;;;;3.83;3.62;;;;;;;15.48;47.20;99621.16;1635671;86;21076;-70
2022/04/24 07:33:11;;;;;;;3.77;3.58;;;;;;;15.45;46.38;99620.81;1637086;85;21034;-72
2022/04/24 07:35:43;;;;;;;5.37;5.03;;;;;;;15.46;46.46;99622.43;1636703;86;21150;-73
2022/04/24 07:38:09;;;;;;;3.85;3.65;;;;;;;15.42;45.84;99625.31;1636747;86;21028;-72
2022/04/24 07:40:42;;;;;;;3.60;3.40;;;;;;;15.26;45.63;99629.56;1641233;86;21093;-71
2022/04/24 07:43:11;;;;;;;4.70;4.40;;;;;;;15.16;46.02;99631.47;1650645;86;22122;-72
2022/04/24 07:45:44;;;;;;;4.12;3.92;;;;;;;15.12;45.84;99631.66;1635657;86;21239;-71
2022/04/24 07:48:13;;;;;;;4.03;3.83;;;;;;;15.09;44.79;99626.25;1636819;86;21179;-73
2022/04/24 07:50:44;;;;;;;4.05;3.62;;;;;;;15.12;45.13;99627.64;1635665;86;21194;-71
2022/04/24 07:53:14;;;;;;;5.40;4.90;;;;;;;15.19;44.53;99632.36;1635813;86;21190;-72
2022/04/24 07:55:46;;;;;;;4.15;3.95;;;;;;;15.18;44.64;99633.39;1635713;86;21585;-74
2022/04/24 07:58:13;;;;;;;4.05;3.85;;;;;;;15.16;45.17;99635.00;1636956;86;21151;-73
2022/04/24 08:00:41;;;;;;;4.22;4.03;;;;;;;15.22;43.84;99639.95;1636657;86;21605;-72
2022/04/24 08:03:13;;;;;;;4.35;4.15;;;;;;;15.24;43.13;99641.88;1635812;86;21171;-70
2022/04/24 08:05:49;;;;;;;3.33;3.12;;;;;;;15.14;42.61;99634.92;1635984;86;21127;-72
2022/04/24 08:08:19;;;;;;;3.37;3.20;;;;;;;15.10;42.35;99633.77;1635711;86;21651;-73
2022/04/24 08:10:52;;;;;;;4.15;3.95;;;;;;;15.04;42.21;99639.55;1635774;86;21064;-72
2022/04/24 08:13:21;;;;;;;3.75;3.52;;;;;;;15.02;41.68;99635.48;1655051;86;21181;-72
2022/04/24 08:15:50;;;;;;;3.80;3.60;;;;;;;15.04;41.85;99636.06;1636296;86;21064;-73
2022/04/24 08:18:19;;;;;;;4.00;3.75;;;;;;;15.03;42.06;99632.56;1647134;86;21620;-72
2022/04/24 08:20:46;;;;;;;3.15;2.95;;;;;;;15.06;41.64;99631.27;1635961;86;21048;-71
2022/04/24 08:23:17;;;;;;;3.95;3.55;;;;;;;15.08;42.02;99638.56;1648342;86;21134;-73
2022/04/24 08:25:45;;;;;;;3.72;3.52;;;;;;;15.08;42.10;99632.66;1642663;86;21142;-73
2022/04/24 08:28:14;;;;;;;2.95;2.80;;;;;;;15.09;42.04;99634.30;1636583;86;21041;-73
2022/04/24 08:30:46;;;;;;;3.50;3.30;;;;;;;15.15;42.18;99632.02;1635876;86;21401;-71
2022/04/24 08:33:15;;;;;;;2.90;2.80;;;;;;;15.22;41.08;99633.74;1635656;85;21637;-73
2022/04/24 08:35:42;;;;;;;3.12;2.83;;;;;;;15.20;40.99;99636.69;1636118;86;22238;-71
2022/04/24 08:38:09;;;;;;;3.22;3.02;;;;;;;15.14;40.81;99630.90;1646530;86;21576;-73
2022/04/24 08:40:37;;;;;;;2.25;2.15;;;;;;;15.16;40.79;99629.63;1636371;86;21032;-72
2022/04/24 08:43:03;;;;;;;;;;;;;;;15.22;40.82;99634.58;1638045;86;21154;-72
2022/04/24 08:45:32;;;;;;;2.37;2.17;;;;;;;14.97;40.34;99581.16;1638631;86;20142;-74
2022/04/24 08:48:02;;;;;;;2.02;1.92;;;;;;;15.25;39.70;99631.94;1636528;86;21084;-74
2022/04/24 08:50:32;;;;;;;2.87;2.77;;;;;;;15.25;39.14;99635.97;1643665;86;21107;-74
2022/04/24 08:53:01;;;;;;;2.50;2.33;;;;;;;15.25;39.63;99634.09;1662148;85;21069;-73
2022/04/24 08:55:32;;;;;;;2.00;1.90;;;;;;;15.31;39.93;99634.52;1640872;85;21571;-73
2022/04/24 08:58:01;;;;;;;2.58;2.40;;;;;;;15.38;38.91;99633.83;1635918;86;21608;-73
2022/04/24 09:00:29;;;;;;;3.25;1.85;;;;;;;15.33;38.79;99628.37;1636216;86;21044;-73
2022/04/24 09:02:58;;;;;;;2.10;2.00;;;;;;;15.32;39.03;99633.97;1635907;86;21064;-73
2022/04/24 09:05:27;;;;;;;2.27;2.17;;;;;;;15.34;38.95;99629.99;1635790;86;21147;-73
2022/04/24 09:10:54;;;;;;;2.10;2.00;;;;;;;15.49;39.60;99625.46;1789848;79;22250;-73
2022/04/24 09:13:32;;;;;;;;;;;;;;;15.51;39.53;99631.41;1707069;81;21357;-70
2022/04/24 09:16:02;;;;;;;1.35;1.30;;;;;;;15.57;38.90;99629.64;1698501;83;20166;-73
2022/04/24 09:18:41;;;;;;;1.67;1.60;;;;;;;15.54;38.82;99628.80;1704505;84;21572;-72
2022/04/24 09:21:12;;;;;;;2.50;1.57;;;;;;;15.57;38.73;99635.02;1672687;83;21119;-73
2022/04/24 09:23:42;;;;;;;2.40;2.20;;;;;;;15.60;39.11;99625.14;1699524;83;21647;-74
2022/04/24 09:26:16;;;;;;;5.33;4.97;;;;;;;15.61;38.57;99629.98;1702829;83;21004;-73
2022/04/24 09:28:44;;;;;;;2.80;2.60;;;;;;;15.61;39.46;99630.79;1699652;83;21536;-70
2022/04/24 09:31:10;;;;;;;2.65;2.45;;;;;;;15.73;39.21;99630.77;1701898;83;21056;-74
2022/04/24 09:33:42;;;;;;;1.95;1.95;;;;;;;15.88;38.89;99631.59;1699533;81;21663;-72
2022/04/24 09:36:11;;;;;;;1.60;1.60;;;;;;;16.01;38.66;99629.98;1696026;83;21054;-73
2022/04/24 09:38:47;;;;;;;1.20;1.17;;;;;;;16.09;38.04;99639.52;1688665;83;21063;-72
2022/04/24 09:41:21;;;;;;;1.20;1.12;;;;;;;16.07;37.92;99637.61;1698801;83;21244;-72
2022/04/24 09:43:50;;;;;;;2.08;1.37;;;;;;;16.01;37.69;99636.70;1699592;83;21547;-72
2022/04/24 09:46:28;;;;;;;1.77;1.67;;;;;;;15.99;37.75;99641.47;1660114;81;21571;-71
2022/04/24 09:48:58;;;;;;;2.02;1.92;;;;;;;15.97;37.72;99639.56;1655915;84;21093;-72
2022/04/24 09:51:25;;;;;;;1.30;1.20;;;;;;;15.95;38.08;99646.54;1655726;84;21077;-71
2022/04/24 09:53:59;;;;;;;1.37;1.10;;;;;;;15.94;38.19;99642.74;1655895;84;21067;-73
2022/04/24 09:56:28;;;;;;;1.72;1.62;;;;;;;15.93;37.71;99646.48;1661803;84;21671;-73
2022/04/24 09:58:57;;;;;;;1.30;0.83;;;;;;;15.98;37.92;99645.77;1654888;84;21077;-72
2022/04/24 10:01:29;;;;;;;0.68;0.68;;;;;;;16.03;37.42;99648.53;1641112;85;21076;-75
2022/04/24 10:03:57;;;;;;;1.00;1.00;;;;;;;16.06;37.70;99646.17;1642344;85;21081;-72
2022/04/24 10:06:25;;;;;;;1.37;1.27;;;;;;;16.10;37.50;99648.66;1658952;85;21180;-72
2022/04/24 10:08:52;;;;;;;1.35;1.35;;;;;;;16.16;38.14;99646.88;1654583;85;21143;-73
2022/04/24 10:11:20;;;;;;;1.80;1.70;;;;;;;16.26;37.51;99653.80;1622772;87;21523;-73
2022/04/24 10:13:52;;;;;;;1.45;1.35;;;;;;;16.26;37.25;99658.37;1623630;87;21141;-72
2022/04/24 10:16:27;;;;;;;1.47;1.37;;;;;;;16.22;37.68;99658.04;1680710;84;21037;-73
2022/04/24 10:19:22;;;;;;;1.60;1.60;;;;;;;16.27;37.88;99651.92;1680290;85;21010;-72
2022/04/24 10:22:30;;;;;;;1.15;1.15;;;;;;;16.34;37.69;99641.83;1638003;85;21026;-73
2022/04/24 10:25:01;;;;;;;1.40;1.40;;;;;;;16.33;36.79;99653.13;1655209;84;21621;-73
2022/04/24 10:27:50;;;;;;;3.92;1.25;;;;;;;16.25;37.29;99655.38;1674444;84;21126;-72
2022/04/24 10:30:25;;;;;;;0.98;0.98;;;;;;;16.27;37.44;99654.61;1673299;84;21096;-73
2022/04/24 10:33:19;;;;;;;1.57;1.47;;;;;;;16.29;37.47;99656.02;1672872;84;21084;-72
2022/04/24 10:35:59;;;;;;;2.08;1.98;;;;;;;16.33;37.67;99657.66;1670758;84;21104;-72
2022/04/24 10:38:24;;;;;;;2.77;1.80;;;;;;;16.41;37.96;99646.52;1681363;84;21328;-72
2022/04/24 10:41:10;;;;;;;1.98;1.90;;;;;;;16.41;38.23;99657.82;1673499;84;21089;-73
2022/04/24 10:43:40;;;;;;;2.72;2.62;;;;;;;16.40;38.34;99657.52;1676825;84;22176;-72
2022/04/24 10:46:26;;;;;;;2.17;1.85;;;;;;;16.35;38.24;99652.34;1676204;84;21121;-73
2022/04/24 10:48:56;;;;;;;;;;;;;;;16.29;39.29;99649.30;1667172;84;21542;-73
2022/04/24 10:51:30;;;;;;;2.22;2.02;;;;;;;16.26;39.37;99656.48;1678769;84;20147;-73
2022/04/24 10:54:11;;;;;;;2.08;1.98;;;;;;;16.25;39.43;99659.41;1680762;84;21062;-74
2022/04/24 10:56:38;;;;;;;4.53;4.33;;;;;;;16.33;39.57;99653.13;1664783;84;21058;-73
2022/04/24 10:59:18;;;;;;;3.02;2.92;;;;;;;16.45;39.27;99650.36;1644691;85;21598;-73
2022/04/24 11:01:54;;;;;;;2.58;2.37;;;;;;;16.52;39.14;99642.95;1673006;84;21598;-75
2022/04/24 11:04:25;;;;;;;2.98;2.70;;;;;;;16.52;39.15;99646.17;1658598;84;21077;-71
2022/04/24 11:07:00;;;;;;;1.80;1.70;;;;;;;16.50;39.14;99653.14;1667808;84;20990;-73
2022/04/24 11:09:38;;;;;;;2.85;2.65;;;;;;;16.51;39.39;99651.25;1677476;84;21731;-71
2022/04/24 11:12:07;;;;;;;1.98;1.87;;;;;;;16.52;39.15;99653.70;1668199;84;21081;-71
2022/04/24 11:14:35;;;;;;;2.92;2.75;;;;;;;16.56;39.37;99655.38;1666820;84;20990;-73
2022/04/24 11:17:05;;;;;;;1.85;1.80;;;;;;;16.64;39.23;99654.16;1668345;84;21242;-71
2022/04/24 11:19:38;;;;;;;2.25;2.15;;;;;;;16.68;38.19;99652.06;1681013;84;21070;-72
2022/04/24 11:22:10;;;;;;;2.50;2.35;;;;;;;16.65;38.65;99653.91;1682096;84;21051;-72
2022/04/24 11:24:41;;;;;;;2.35;2.25;;;;;;;16.65;38.69;99648.53;1679404;85;21649;-74
2022/04/24 11:27:13;;;;;;;2.47;2.37;;;;;;;16.66;39.01;99642.61;1681569;85;21100;-74
2022/04/24 11:29:43;;;;;;;2.17;2.10;;;;;;;16.68;39.28;99643.98;1659161;85;21138;-72
2022/04/24 11:32:13;;;;;;;2.65;2.55;;;;;;;16.75;39.09;99647.88;1653113;85;21084;-74
2022/04/24 11:34:40;;;;;;;3.35;2.75;;;;;;;16.79;39.57;99649.00;1662459;85;22194;-72
2022/04/24 11:37:09;;;;;;;2.15;2.05;;;;;;;16.80;38.87;99653.84;1660186;85;21200;-71
2022/04/24 11:39:39;;;;;;;2.77;2.33;;;;;;;16.77;38.55;99646.28;1656470;85;21647;-71
2022/04/24 11:42:08;;;;;;;2.30;2.20;;;;;;;16.71;38.96;99648.08;1654242;85;21137;-75
2022/04/24 11:50:15;;;;;;;1.27;1.12;;;;;;;16.66;39.04;99646.65;1646896;85;20158;-73
2022/04/24 11:52:44;;;;;;;2.17;2.08;;;;;;;16.59;39.12;99659.45;1654609;85;21069;-72
2022/04/24 11:55:17;;;;;;;2.22;2.10;;;;;;;16.62;38.96;99656.28;1617082;87;21066;-72